Time;durP1;ratioP1;P1;durP2;ratioP2;P2;SDS_P1;SDS_P2;PMS_P1;PMS_P2;Temp;Humidity;BMP_temperature;BMP_pressure;BME280_temperature;BME280_humidity;BME280_pressure;Samples;Min_cycle;Max_cycle;Signal;HPM_P1;HPM_P2
2023/12/06 00:02:17;;;;;;;45.75;22.08;;;;;;;8.41;100.00;99815.75;5034446;28;20096;-64
2023/12/06 00:04:42;;;;;;;54.80;24.95;;;;;;;8.44;100.00;99815.44;5027062;28;20042;-65
2023/12/06 00:07:08;;;;;;;55.00;25.13;;;;;;;8.40;100.00;99807.97;5030313;28;20033;-65
2023/12/06 00:09:33;;;;;;;51.80;24.23;;;;;;;8.34;100.00;99811.19;5034213;28;20297;-65
2023/12/06 00:11:59;;;;;;;49.45;22.58;;;;;;;8.37;100.00;99808.28;5034476;28;20096;-63
2023/12/06 00:14:24;;;;;;;50.70;23.63;;;;;;;8.40;100.00;99811.44;5034334;28;20604;-65
2023/12/06 00:16:50;;;;;;;44.60;21.35;;;;;;;8.42;100.00;99816.56;5034254;28;20052;-63
2023/12/06 00:19:15;;;;;;;50.28;23.50;;;;;;;8.43;100.00;99797.97;5030973;28;20053;-63
2023/12/06 00:21:41;;;;;;;45.85;22.08;;;;;;;8.35;100.00;99802.31;5035185;28;20271;-65
2023/12/06 00:24:08;;;;;;;53.47;22.90;;;;;;;8.35;100.00;99800.50;5023718;28;20331;-63
2023/12/06 00:26:34;;;;;;;44.75;22.45;;;;;;;8.29;100.00;99791.31;5035186;28;20201;-63
2023/12/06 00:28:59;;;;;;;50.75;23.25;;;;;;;8.24;100.00;99788.28;5019999;28;20106;-63
2023/12/06 00:31:25;;;;;;;45.00;22.42;;;;;;;8.19;100.00;99798.44;5033876;28;20038;-63
2023/12/06 00:33:50;;;;;;;44.42;21.45;;;;;;;8.18;100.00;99796.78;5034757;28;20100;-65
2023/12/06 00:36:16;;;;;;;45.42;21.42;;;;;;;8.17;100.00;99803.03;5033985;28;20049;-63
2023/12/06 00:38:41;;;;;;;52.40;22.58;;;;;;;8.15;100.00;99794.41;5034377;28;20336;-63
2023/12/06 00:41:07;;;;;;;45.05;20.73;;;;;;;8.07;100.00;99793.47;5034090;28;20037;-65
2023/12/06 00:43:32;;;;;;;51.72;23.92;;;;;;;8.12;100.00;99786.78;5033601;28;20033;-65
2023/12/06 00:45:58;;;;;;;53.28;23.35;;;;;;;8.15;100.00;99785.69;5033881;28;20033;-65
2023/12/06 00:48:23;;;;;;;53.15;25.67;;;;;;;8.15;100.00;99783.88;5033295;28;20045;-65
2023/12/06 00:50:49;;;;;;;47.25;24.77;;;;;;;8.12;100.00;99788.59;5033312;28;20033;-65
2023/12/06 00:53:14;;;;;;;55.40;24.75;;;;;;;8.18;100.00;99782.75;5033627;28;20107;-62
2023/12/06 00:55:40;;;;;;;58.28;27.85;;;;;;;8.12;100.00;99772.78;5032971;28;20045;-65
2023/12/06 00:58:06;;;;;;;51.80;25.20;;;;;;;8.03;100.00;99766.56;5034154;28;20033;-65
2023/12/06 01:00:31;;;;;;;54.80;25.27;;;;;;;7.90;100.00;99768.72;5034124;28;20033;-63
2023/12/06 01:02:57;;;;;;;54.00;27.77;;;;;;;7.97;100.00;99775.06;5033363;28;20056;-65
2023/12/06 01:05:22;;;;;;;55.30;28.85;;;;;;;8.04;100.00;99770.88;5033445;28;20345;-63
2023/12/06 01:07:48;;;;;;;72.82;34.35;;;;;;;8.12;100.00;99772.78;5033821;28;20033;-64
2023/12/06 01:10:13;;;;;;;63.60;30.00;;;;;;;8.18;100.00;99773.03;5033738;28;20033;-65
2023/12/06 01:12:39;;;;;;;52.15;24.65;;;;;;;8.22;100.00;99771.75;5033530;28;20044;-65
2023/12/06 01:15:05;;;;;;;62.50;29.95;;;;;;;8.24;100.00;99766.34;5034035;28;20396;-62
2023/12/06 01:17:32;;;;;;;69.00;31.40;;;;;;;8.20;100.00;99759.69;5033761;28;20278;-63
2023/12/06 01:19:58;;;;;;;53.05;26.02;;;;;;;8.26;100.00;99756.47;5033500;28;20029;-65
2023/12/06 01:22:24;;;;;;;51.40;25.20;;;;;;;8.29;100.00;99751.72;5033124;28;20100;-63
2023/12/06 01:24:49;;;;;;;57.17;23.67;;;;;;;8.31;100.00;99754.22;5004969;28;20354;-63
2023/12/06 01:27:15;;;;;;;48.72;24.67;;;;;;;8.24;100.00;99742.59;5030215;28;20034;-65
2023/12/06 01:29:40;;;;;;;46.83;23.48;;;;;;;8.17;100.00;99742.34;5022863;28;20034;-63
2023/12/06 01:32:06;;;;;;;46.08;22.67;;;;;;;8.20;100.00;99731.50;5031713;28;20100;-64
2023/12/06 01:34:31;;;;;;;47.92;22.05;;;;;;;8.24;100.00;99738.16;5032671;28;20057;-63
2023/12/06 01:36:57;;;;;;;45.03;22.65;;;;;;;8.26;100.00;99732.72;5032992;28;20045;-63
2023/12/06 01:39:22;;;;;;;50.60;23.48;;;;;;;8.24;100.00;99730.25;5032591;28;20048;-65
2023/12/06 01:41:48;;;;;;;50.22;23.10;;;;;;;8.24;100.00;99732.88;5031933;28;20036;-63
2023/12/06 01:44:14;;;;;;;55.47;27.58;;;;;;;8.32;100.00;99734.78;5033235;28;20128;-65
2023/12/06 01:46:39;;;;;;;53.85;22.33;;;;;;;8.39;100.00;99730.63;5033413;28;20049;-63
2023/12/06 01:49:08;;;;;;;52.13;24.60;;;;;;;8.44;100.00;99728.38;5034481;28;20246;-65
2023/12/06 01:51:34;;;;;;;58.72;29.27;;;;;;;8.47;100.00;99717.53;5033104;28;20096;-63
2023/12/06 01:53:59;;;;;;;55.38;25.02;;;;;;;8.53;100.00;99721.38;5029921;28;20037;-63
2023/12/06 01:56:25;;;;;;;53.78;23.17;;;;;;;8.54;100.00;99715.13;5034698;28;20079;-65
2023/12/06 01:58:51;;;;;;;48.97;21.95;;;;;;;8.51;100.00;99703.06;5033394;28;20033;-65
2023/12/06 02:01:16;;;;;;;52.90;23.08;;;;;;;8.58;100.00;99708.56;5030770;28;20270;-65
2023/12/06 02:03:42;;;;;;;45.47;22.42;;;;;;;8.57;100.00;99696.34;5023738;28;20040;-65
2023/12/06 02:06:09;;;;;;;55.60;25.02;;;;;;;8.61;100.00;99693.25;5032650;28;20057;-63
2023/12/06 02:08:36;;;;;;;46.03;21.17;;;;;;;8.47;100.00;99685.84;5033213;28;20036;-63
2023/12/06 02:11:03;;;;;;;55.40;23.73;;;;;;;8.34;100.00;99681.94;5032611;28;20037;-65
2023/12/06 02:13:29;;;;;;;54.55;24.48;;;;;;;8.17;100.00;99680.88;5032640;28;20045;-65
2023/12/06 02:15:56;;;;;;;49.58;22.42;;;;;;;8.19;100.00;99679.75;5035834;28;20041;-65
2023/12/06 02:18:23;;;;;;;60.03;24.23;;;;;;;8.27;100.00;99665.81;5036876;28;20297;-65
2023/12/06 02:20:49;;;;;;;54.83;26.33;;;;;;;8.31;100.00;99670.63;5036498;28;20037;-63
2023/12/06 02:23:16;;;;;;;61.15;24.67;;;;;;;8.26;100.00;99667.63;5036575;28;20327;-65
2023/12/06 02:25:44;;;;;;;56.65;22.52;;;;;;;8.30;100.00;99673.41;5036598;28;20048;-65
2023/12/06 02:28:10;;;;;;;54.22;23.38;;;;;;;8.35;100.00;99679.13;5033129;28;20230;-64
2023/12/06 02:30:35;;;;;;;63.83;26.00;;;;;;;8.42;100.00;99679.38;5036566;28;20045;-65
2023/12/06 02:33:01;;;;;;;58.38;25.48;;;;;;;8.44;100.00;99678.25;5036202;28;20040;-65
2023/12/06 02:35:31;;;;;;;58.75;25.35;;;;;;;8.44;100.00;99677.41;5036491;28;20208;-65
2023/12/06 02:38:00;;;;;;;61.72;26.30;;;;;;;8.38;100.00;99681.47;5035952;28;20335;-65
2023/12/06 02:40:29;;;;;;;59.65;27.10;;;;;;;8.40;100.00;99673.41;5027200;28;20405;-65
2023/12/06 02:42:55;;;;;;;64.65;27.95;;;;;;;8.43;100.00;99668.66;5034027;28;20080;-65
2023/12/06 02:45:20;;;;;;;58.25;25.90;;;;;;;8.49;100.00;99664.59;5035762;28;20045;-64
2023/12/06 02:47:46;;;;;;;64.13;26.67;;;;;;;8.50;100.00;99674.16;5035571;28;20038;-63
2023/12/06 02:50:12;;;;;;;56.90;26.48;;;;;;;8.48;100.00;99676.13;5036076;28;20056;-63
2023/12/06 02:52:37;;;;;;;62.58;26.45;;;;;;;8.49;100.00;99669.88;5035518;28;20333;-65
2023/12/06 02:55:03;;;;;;;57.97;26.10;;;;;;;8.49;100.00;99667.25;5035575;28;20041;-63
2023/12/06 02:57:29;;;;;;;61.53;28.08;;;;;;;8.42;100.00;99659.09;5035328;28;20331;-65
2023/12/06 02:59:54;;;;;;;59.50;27.85;;;;;;;8.42;100.00;99666.19;5035273;28;20092;-65
2023/12/06 03:02:20;;;;;;;68.90;28.27;;;;;;;8.44;100.00;99659.78;5035280;28;20045;-63
2023/12/06 03:04:45;;;;;;;56.63;25.23;;;;;;;8.45;100.00;99669.34;5035333;28;20036;-62
2023/12/06 03:07:11;;;;;;;72.60;32.88;;;;;;;8.43;100.00;99660.75;5035937;28;20033;-63
2023/12/06 03:09:37;;;;;;;62.05;27.77;;;;;;;8.40;100.00;99660.22;5036124;28;20030;-65
2023/12/06 03:12:02;;;;;;;65.80;27.92;;;;;;;8.35;100.00;99659.84;5035968;28;20068;-63
2023/12/06 03:14:28;;;;;;;65.60;26.60;;;;;;;8.35;100.00;99663.31;5036806;28;20044;-63
2023/12/06 03:16:54;;;;;;;65.20;28.48;;;;;;;8.35;100.00;99652.75;5036627;28;20040;-65
2023/12/06 03:19:19;;;;;;;57.35;26.70;;;;;;;8.33;100.00;99644.16;5036005;28;20204;-63
2023/12/06 03:21:45;;;;;;;63.25;28.73;;;;;;;8.31;100.00;99653.97;5036829;28;20326;-63
2023/12/06 03:24:10;;;;;;;70.07;29.17;;;;;;;8.17;100.00;99654.50;5036239;28;20045;-65
2023/12/06 03:26:36;;;;;;;62.80;30.45;;;;;;;8.14;100.00;99655.63;5033002;28;20107;-63
2023/12/06 03:29:02;;;;;;;69.53;30.30;;;;;;;8.15;100.00;99652.00;5023474;28;20638;-63
2023/12/06 03:31:27;;;;;;;71.85;27.98;;;;;;;8.20;100.00;99656.81;5035731;28;20596;-62
2023/12/06 03:33:53;;;;;;;60.88;27.30;;;;;;;8.17;100.00;99652.69;5035643;28;20101;-63
2023/12/06 03:36:18;;;;;;;70.25;29.30;;;;;;;8.14;100.00;99649.50;5035777;28;20053;-65
2023/12/06 03:38:44;;;;;;;67.93;27.20;;;;;;;8.10;100.00;99645.50;5035757;28;20357;-64
2023/12/06 03:41:09;;;;;;;70.18;28.67;;;;;;;8.16;100.00;99648.38;5035120;28;20044;-65
2023/12/06 03:43:35;;;;;;;68.22;29.10;;;;;;;8.13;100.00;99655.75;5035185;28;20045;-63
2023/12/06 03:46:00;;;;;;;72.03;30.13;;;;;;;8.05;100.00;99660.94;5035314;28;20044;-65
2023/12/06 03:48:26;;;;;;;78.28;30.85;;;;;;;8.12;100.00;99656.75;5034998;28;20375;-63
2023/12/06 03:50:51;;;;;;;74.78;29.05;;;;;;;8.18;100.00;99651.69;5034381;28;20307;-63
2023/12/06 03:53:17;;;;;;;76.75;28.98;;;;;;;8.18;100.00;99651.69;5034955;28;20041;-63
2023/12/06 03:55:43;;;;;;;69.97;29.08;;;;;;;8.27;100.00;99644.69;5034274;28;20033;-63
2023/12/06 03:58:09;;;;;;;72.78;29.92;;;;;;;8.19;100.00;99647.25;5034582;28;20041;-63
2023/12/06 04:00:34;;;;;;;81.55;32.33;;;;;;;8.22;100.00;99644.31;5034753;28;20059;-63
2023/12/06 04:03:00;;;;;;;73.53;30.52;;;;;;;8.13;100.00;99637.31;5034440;28;20315;-63
2023/12/06 04:05:26;;;;;;;73.97;30.65;;;;;;;8.09;100.00;99636.78;5034635;28;20120;-65
2023/12/06 04:07:52;;;;;;;71.75;28.95;;;;;;;8.07;100.00;99643.16;5034506;28;20222;-65
2023/12/06 04:10:18;;;;;;;70.85;27.65;;;;;;;8.11;100.00;99642.72;5036919;28;20033;-64
2023/12/06 04:12:43;;;;;;;68.75;29.48;;;;;;;8.13;100.00;99642.56;5022053;28;20030;-63
2023/12/06 04:15:09;;;;;;;70.28;28.33;;;;;;;8.13;100.00;99637.31;5035358;28;20041;-65
2023/12/06 04:17:34;;;;;;;74.03;29.73;;;;;;;8.16;100.00;99640.47;5034328;28;20037;-65
2023/12/06 04:20:00;;;;;;;75.30;29.77;;;;;;;8.21;100.00;99632.13;5034318;28;20144;-64
2023/12/06 04:22:25;;;;;;;69.03;27.38;;;;;;;8.24;100.00;99629.16;5034253;28;20029;-63
2023/12/06 04:24:53;;;;;;;68.30;29.48;;;;;;;8.15;100.00;99628.25;5035694;28;20048;-65
2023/12/06 04:27:18;;;;;;;69.15;29.08;;;;;;;8.21;100.00;99625.03;5034623;28;20248;-63
2023/12/06 04:29:44;;;;;;;71.32;27.25;;;;;;;8.21;100.00;99632.13;5034094;28;20109;-63
2023/12/06 04:32:09;;;;;;;64.93;28.05;;;;;;;8.14;100.00;99631.88;5033825;28;20029;-65
2023/12/06 04:34:45;;;;;;;79.97;26.90;;;;;;;8.06;100.00;99634.44;5034238;28;20033;-63
2023/12/06 04:37:11;;;;;;;64.35;27.73;;;;;;;8.13;100.00;99627.59;5033479;28;20037;-63
2023/12/06 04:39:36;;;;;;;66.85;28.40;;;;;;;8.19;100.00;99632.25;5034136;28;20041;-65
2023/12/06 04:42:02;;;;;;;79.63;31.25;;;;;;;8.21;100.00;99625.03;5034118;28;20344;-63
2023/12/06 04:44:28;;;;;;;79.07;27.90;;;;;;;7.99;100.00;99615.75;5034055;28;20405;-65
2023/12/06 04:46:53;;;;;;;71.28;29.48;;;;;;;8.08;100.00;99621.94;5033269;28;20302;-63
2023/12/06 04:49:19;;;;;;;69.40;26.92;;;;;;;8.08;100.00;99618.47;5034133;28;20037;-63
2023/12/06 04:51:44;;;;;;;66.68;27.25;;;;;;;8.10;100.00;99622.59;5023684;28;20373;-65
2023/12/06 04:54:10;;;;;;;81.78;30.70;;;;;;;8.06;100.00;99617.78;5033288;28;20056;-63
2023/12/06 04:56:35;;;;;;;60.67;27.67;;;;;;;8.10;100.00;99611.22;5033546;28;20045;-65
2023/12/06 04:59:01;;;;;;;71.43;27.58;;;;;;;8.18;100.00;99614.78;5030625;28;20061;-65
2023/12/06 05:01:26;;;;;;;76.55;29.33;;;;;;;8.18;100.00;99613.94;5025000;28;20319;-65
2023/12/06 05:03:52;;;;;;;73.60;29.35;;;;;;;8.20;100.00;99609.34;5033351;28;20029;-65
2023/12/06 05:06:17;;;;;;;69.35;28.05;;;;;;;8.25;100.00;99612.38;5012425;28;20243;-63
2023/12/06 05:08:43;;;;;;;71.65;28.75;;;;;;;8.18;100.00;99620.06;5026178;28;20033;-62
2023/12/06 05:11:08;;;;;;;74.72;31.35;;;;;;;8.23;100.00;99616.97;5033361;28;20029;-63
2023/12/06 05:13:34;;;;;;;79.30;28.40;;;;;;;8.25;100.00;99617.63;5033452;28;20034;-65
2023/12/06 05:15:59;;;;;;;68.60;27.27;;;;;;;8.13;100.00;99621.47;5027080;28;20046;-62
2023/12/06 05:18:25;;;;;;;88.95;30.85;;;;;;;8.16;100.00;99622.00;5030427;28;20056;-63
2023/12/06 05:20:50;;;;;;;79.20;28.67;;;;;;;8.20;100.00;99618.09;5032745;28;20029;-65
2023/12/06 05:23:16;;;;;;;77.70;29.05;;;;;;;8.26;100.00;99628.03;5035504;28;20373;-63
2023/12/06 05:25:41;;;;;;;81.68;29.52;;;;;;;8.32;100.00;99622.19;5033489;28;20063;-65
2023/12/06 05:28:07;;;;;;;78.15;28.70;;;;;;;8.35;100.00;99626.38;5033741;28;20104;-64
2023/12/06 05:30:32;;;;;;;84.18;30.48;;;;;;;8.39;100.00;99626.91;5022617;28;20307;-63
2023/12/06 05:32:58;;;;;;;84.03;31.92;;;;;;;8.42;100.00;99626.59;5033101;28;20140;-65
2023/12/06 05:35:24;;;;;;;78.88;28.75;;;;;;;8.40;100.00;99625.91;5028605;28;20049;-65
2023/12/06 05:37:49;;;;;;;84.75;28.45;;;;;;;8.41;100.00;99630.22;5025497;28;20100;-63
2023/12/06 05:40:15;;;;;;;82.53;29.48;;;;;;;8.46;100.00;99631.44;5024014;28;20295;-62
2023/12/06 05:42:40;;;;;;;83.63;32.80;;;;;;;8.47;100.00;99621.69;5023646;28;20049;-65
2023/12/06 05:45:06;;;;;;;78.07;28.33;;;;;;;8.52;100.00;99622.91;5024207;28;20034;-65
2023/12/06 05:47:32;;;;;;;73.68;27.30;;;;;;;8.55;100.00;99622.59;5024456;28;20236;-64
2023/12/06 05:49:57;;;;;;;77.93;26.02;;;;;;;8.51;100.00;99626.53;5025952;28;20105;-63
2023/12/06 05:52:23;;;;;;;77.45;25.92;;;;;;;8.51;100.00;99623.88;5029121;28;20320;-65
2023/12/06 05:54:48;;;;;;;72.43;24.95;;;;;;;8.47;100.00;99625.16;5027808;28;20050;-64
2023/12/06 05:57:14;;;;;;;60.03;24.85;;;;;;;8.40;100.00;99625.91;5028391;28;20312;-63
2023/12/06 05:59:40;;;;;;;71.53;24.48;;;;;;;8.34;100.00;99629.16;5036123;28;20091;-65
2023/12/06 06:02:05;;;;;;;56.33;22.38;;;;;;;8.27;100.00;99627.06;5026637;28;20045;-65
2023/12/06 06:04:31;;;;;;;69.90;27.17;;;;;;;8.27;100.00;99628.88;5027477;28;20048;-63
2023/12/06 06:06:56;;;;;;;66.80;24.23;;;;;;;8.26;100.00;99625.41;5028252;28;20042;-65
2023/12/06 06:09:22;;;;;;;73.78;25.00;;;;;;;8.28;100.00;99626.09;5028002;28;20038;-63
2023/12/06 06:11:48;;;;;;;70.00;24.70;;;;;;;8.28;100.00;99630.53;5027268;28;20048;-63
2023/12/06 06:14:14;;;;;;;67.47;24.55;;;;;;;8.34;100.00;99627.34;5027442;28;20228;-63
2023/12/06 06:16:39;;;;;;;76.13;25.52;;;;;;;8.42;100.00;99632.72;5027812;28;20056;-65
2023/12/06 06:19:05;;;;;;;78.28;28.48;;;;;;;8.45;100.00;99629.78;5026782;28;20038;-63
2023/12/06 06:21:30;;;;;;;67.97;24.10;;;;;;;8.47;100.00;99635.72;5027817;28;20034;-65
2023/12/06 06:23:56;;;;;;;77.38;26.85;;;;;;;8.52;100.00;99635.28;5028049;28;20323;-64
2023/12/06 06:26:21;;;;;;;77.07;25.92;;;;;;;8.48;100.00;99637.38;5028131;28;20236;-63
2023/12/06 06:28:48;;;;;;;74.68;26.88;;;;;;;8.48;100.00;99644.47;5027768;28;20112;-65
2023/12/06 06:31:13;;;;;;;77.95;26.38;;;;;;;8.42;100.00;99632.72;5026737;28;20037;-65
2023/12/06 06:33:39;;;;;;;85.82;28.95;;;;;;;8.42;100.00;99639.78;5027568;28;20064;-65
2023/12/06 06:36:05;;;;;;;69.15;25.42;;;;;;;8.45;100.00;99624.50;5027807;28;20056;-63
2023/12/06 06:38:31;;;;;;;64.38;25.67;;;;;;;8.49;100.00;99627.66;5033684;28;20040;-65
2023/12/06 06:40:56;;;;;;;70.88;27.75;;;;;;;8.50;100.00;99638.06;5028053;28;20243;-65
2023/12/06 06:43:22;;;;;;;68.40;26.75;;;;;;;8.51;100.00;99638.88;5036533;28;20048;-65
2023/12/06 06:45:47;;;;;;;61.97;22.45;;;;;;;8.52;100.00;99635.28;5036515;28;20045;-65
2023/12/06 06:48:13;;;;;;;70.32;24.88;;;;;;;8.55;100.00;99633.16;5036353;28;20068;-65
2023/12/06 06:50:39;;;;;;;71.78;23.50;;;;;;;8.61;100.00;99623.81;5036168;28;20033;-63
2023/12/06 06:53:04;;;;;;;66.57;24.52;;;;;;;8.68;100.00;99632.78;5035688;28;20107;-65
2023/12/06 06:55:30;;;;;;;67.53;24.80;;;;;;;8.72;100.00;99625.38;5035908;28;20053;-65
2023/12/06 06:57:56;;;;;;;72.15;26.38;;;;;;;8.64;100.00;99621.69;5036305;28;20047;-65
2023/12/06 07:00:22;;;;;;;73.40;25.25;;;;;;;8.67;100.00;99617.91;5036825;28;20059;-63
2023/12/06 07:02:48;;;;;;;44.80;20.00;;;;;;;8.69;100.00;99623.88;5037001;28;20092;-65
2023/12/06 07:05:14;;;;;;;46.00;19.10;;;;;;;8.73;100.00;99627.03;5035144;28;20220;-64
2023/12/06 07:07:41;;;;;;;42.58;18.00;;;;;;;8.78;100.00;99628.22;5035660;28;20544;-63
2023/12/06 07:10:09;;;;;;;51.53;19.00;;;;;;;8.82;100.00;99624.28;5035180;28;20356;-65
2023/12/06 07:12:36;;;;;;;40.45;18.25;;;;;;;8.86;100.00;99633.56;5033022;28;20170;-63
2023/12/06 07:15:02;;;;;;;45.40;19.30;;;;;;;8.89;100.00;99633.25;5032920;28;20037;-63
2023/12/06 07:17:29;;;;;;;47.50;17.88;;;;;;;8.73;100.00;99630.50;5032444;28;20104;-64
2023/12/06 07:19:55;;;;;;;40.53;19.35;;;;;;;8.76;100.00;99638.09;5035346;28;20336;-65
2023/12/06 07:22:21;;;;;;;38.75;18.38;;;;;;;8.82;100.00;99642.78;5035403;28;20043;-63
2023/12/06 07:24:48;;;;;;;48.97;18.02;;;;;;;8.83;100.00;99644.44;5034255;28;20079;-63
2023/12/06 07:27:14;;;;;;;40.50;17.55;;;;;;;8.84;100.00;99639.97;5020802;28;20038;-63
2023/12/06 07:29:40;;;;;;;44.10;17.70;;;;;;;8.84;100.00;99637.34;5032910;28;20381;-63
2023/12/06 07:32:06;;;;;;;43.08;18.88;;;;;;;8.86;100.00;99638.03;5035415;28;20193;-63
2023/12/06 07:34:31;;;;;;;44.67;19.67;;;;;;;8.89;100.00;99640.34;5035559;28;20037;-66
2023/12/06 07:36:58;;;;;;;46.45;19.02;;;;;;;8.89;100.00;99640.34;5023331;28;20061;-65
2023/12/06 07:39:23;;;;;;;50.97;20.75;;;;;;;8.83;100.00;99636.53;5035534;28;20045;-65
2023/12/06 07:41:50;;;;;;;51.88;20.92;;;;;;;8.88;100.00;99638.69;5035176;28;20232;-64
2023/12/06 07:44:17;;;;;;;49.38;19.90;;;;;;;8.80;100.00;99626.25;5035176;28;20037;-65
2023/12/06 07:46:43;;;;;;;55.97;20.48;;;;;;;8.87;100.00;99624.66;5035415;28;20130;-63
2023/12/06 07:49:09;;;;;;;54.20;22.02;;;;;;;8.88;100.00;99622.84;5035845;28;20081;-65
2023/12/06 07:51:36;;;;;;;66.57;28.92;;;;;;;8.85;100.00;99628.44;5035250;28;20280;-65
2023/12/06 07:54:01;;;;;;;68.40;25.92;;;;;;;8.66;100.00;99624.16;5034822;28;20056;-66
2023/12/06 07:56:27;;;;;;;63.13;27.55;;;;;;;8.64;100.00;99626.97;5035304;28;20041;-65
2023/12/06 07:58:57;;;;;;;65.80;28.75;;;;;;;8.73;100.00;99638.41;5034644;28;20108;-63
2023/12/06 08:01:29;;;;;;;64.85;26.77;;;;;;;8.77;100.00;99631.84;5035240;28;20371;-63
2023/12/06 08:03:54;;;;;;;62.45;25.75;;;;;;;8.85;100.00;99636.38;5035011;28;20034;-63
2023/12/06 08:06:20;;;;;;;52.70;23.98;;;;;;;8.80;100.00;99638.63;5034947;28;20073;-63
2023/12/06 08:08:48;;;;;;;60.33;24.52;;;;;;;8.73;100.00;99637.59;5035095;28;20088;-64
2023/12/06 08:11:16;;;;;;;57.72;23.65;;;;;;;8.86;100.00;99645.94;5025579;28;20132;-65
2023/12/06 08:13:41;;;;;;;62.35;25.63;;;;;;;8.88;100.00;99643.97;5035026;28;20040;-65
2023/12/06 08:16:07;;;;;;;56.95;23.92;;;;;;;8.85;100.00;99645.13;5034768;28;20411;-66
2023/12/06 08:18:32;;;;;;;63.65;25.30;;;;;;;8.82;100.00;99648.06;5034710;28;20041;-63
2023/12/06 08:20:58;;;;;;;58.33;24.20;;;;;;;8.83;100.00;99652.34;5034526;28;20036;-64
2023/12/06 08:23:23;;;;;;;51.33;20.63;;;;;;;8.85;100.00;99647.75;5034194;28;20033;-63
2023/12/06 08:25:49;;;;;;;59.70;22.80;;;;;;;8.84;100.00;99643.47;5036101;28;20351;-63
2023/12/06 08:28:16;;;;;;;51.47;23.27;;;;;;;8.86;100.00;99645.94;5034113;28;20033;-63
2023/12/06 08:30:42;;;;;;;51.25;21.52;;;;;;;8.90;100.00;99649.94;5033653;28;20045;-65
2023/12/06 08:33:07;;;;;;;46.95;19.85;;;;;;;8.82;100.00;99645.41;5033585;28;20116;-65
2023/12/06 08:35:33;;;;;;;41.88;18.08;;;;;;;8.86;100.00;99638.03;5033457;28;20040;-63
2023/12/06 08:37:58;;;;;;;44.88;18.35;;;;;;;8.93;100.00;99636.41;5024698;28;20049;-66
2023/12/06 08:40:26;;;;;;;40.13;17.55;;;;;;;8.97;100.00;99621.94;5023624;28;20040;-63
2023/12/06 08:42:52;;;;;;;40.25;18.60;;;;;;;8.92;100.00;99630.31;5033614;28;20629;-63
2023/12/06 08:45:17;;;;;;;38.10;18.70;;;;;;;8.95;100.00;99631.81;5030481;28;20239;-64
2023/12/06 08:47:43;;;;;;;39.03;18.10;;;;;;;8.94;100.00;99604.59;5033951;28;20105;-63
2023/12/06 08:50:09;;;;;;;41.50;19.30;;;;;;;8.86;100.00;99608.97;5033743;28;20380;-63
2023/12/06 08:52:35;;;;;;;37.38;18.83;;;;;;;8.85;100.00;99620.53;5033708;28;20040;-63
2023/12/06 08:55:00;;;;;;;45.10;19.58;;;;;;;8.79;100.00;99613.22;5034088;28;20050;-66
2023/12/06 08:57:27;;;;;;;47.08;19.80;;;;;;;8.86;100.00;99609.81;5033670;28;20157;-63
2023/12/06 08:59:53;;;;;;;44.75;17.80;;;;;;;8.94;100.00;99604.59;5032492;28;20056;-66
2023/12/06 09:02:18;;;;;;;43.78;18.10;;;;;;;8.98;100.00;99606.91;5035235;28;20037;-63
2023/12/06 09:04:44;;;;;;;44.70;18.70;;;;;;;9.04;100.00;99593.09;5032984;28;20041;-63
2023/12/06 09:07:09;;;;;;;45.38;18.00;;;;;;;9.02;100.00;99602.97;5033543;28;20045;-63
2023/12/06 09:09:35;;;;;;;31.60;14.90;;;;;;;8.85;100.00;99597.59;5033593;28;21000;-66
2023/12/06 09:12:00;;;;;;;31.58;13.95;;;;;;;8.85;100.00;99587.03;5033336;28;20084;-63
2023/12/06 09:14:26;;;;;;;34.47;14.85;;;;;;;8.72;100.00;99597.16;5035136;28;20616;-65
2023/12/06 09:16:52;;;;;;;32.38;17.05;;;;;;;8.86;100.00;99590.50;5032636;28;20056;-65
2023/12/06 09:19:17;;;;;;;37.05;16.60;;;;;;;8.77;100.00;99584.31;5022563;28;20030;-63
2023/12/06 09:21:47;;;;;;;36.10;15.07;;;;;;;8.76;100.00;99585.31;5033594;28;20060;-64
2023/12/06 09:24:13;;;;;;;38.50;15.27;;;;;;;8.80;100.00;99588.47;5032491;28;20080;-65
2023/12/06 09:26:40;;;;;;;40.63;17.92;;;;;;;8.84;100.00;99582.72;5033621;28;20277;-65
2023/12/06 09:29:08;;;;;;;41.50;17.73;;;;;;;8.87;100.00;99574.50;5032331;28;20208;-63
2023/12/06 09:31:34;;;;;;;46.67;17.38;;;;;;;8.86;100.00;99577.28;5033662;28;20247;-63
2023/12/06 09:34:00;;;;;;;38.70;16.48;;;;;;;8.83;100.00;99572.31;5033616;28;20324;-65
2023/12/06 09:36:27;;;;;;;38.65;16.83;;;;;;;8.90;100.00;99562.78;5033122;28;20258;-66
2023/12/06 09:38:57;;;;;;;40.60;16.55;;;;;;;8.88;100.00;99562.13;5033385;28;20034;-65
2023/12/06 09:41:28;;;;;;;43.13;17.98;;;;;;;8.89;100.00;99555.84;5033727;28;20057;-66
2023/12/06 09:43:54;;;;;;;42.60;18.58;;;;;;;8.95;100.00;99555.22;5023921;28;20029;-66
2023/12/06 09:46:20;;;;;;;41.92;19.15;;;;;;;9.00;100.00;99547.66;5021007;28;20057;-65
2023/12/06 09:48:47;;;;;;;48.40;20.42;;;;;;;9.05;100.00;99548.03;5026029;28;20044;-66
2023/12/06 09:51:14;;;;;;;53.25;20.27;;;;;;;9.09;100.00;99541.44;5033719;28;20045;-66
2023/12/06 09:53:39;;;;;;;51.97;21.33;;;;;;;9.10;100.00;99539.63;5032949;28;20232;-65
2023/12/06 09:56:08;;;;;;;58.58;25.15;;;;;;;8.95;100.00;99531.47;5032577;28;20053;-64
2023/12/06 09:58:34;;;;;;;51.63;22.58;;;;;;;8.97;100.00;99542.69;5032896;28;20044;-67
2023/12/06 10:01:01;;;;;;;56.40;21.80;;;;;;;8.94;100.00;99530.63;5033293;28;20037;-67
2023/12/06 10:03:27;;;;;;;53.72;23.25;;;;;;;9.00;100.00;99534.47;5034144;28;20035;-62
2023/12/06 10:05:57;;;;;;;56.85;21.13;;;;;;;8.98;100.00;99532.97;5033688;28;20049;-65
2023/12/06 10:08:22;;;;;;;49.03;21.50;;;;;;;8.92;100.00;99524.69;5035228;28;20107;-65
2023/12/06 10:10:48;;;;;;;48.15;19.40;;;;;;;8.80;100.00;99527.75;5021057;28;20363;-62
2023/12/06 10:13:14;;;;;;;47.63;20.55;;;;;;;8.88;100.00;99506.69;5023580;28;20227;-66
2023/12/06 10:15:39;;;;;;;47.20;21.40;;;;;;;8.93;100.00;99507.03;5022882;28;20021;-66
2023/12/06 10:18:05;;;;;;;51.63;20.58;;;;;;;8.86;100.00;99495.44;5032543;28;20041;-65
2023/12/06 10:20:31;;;;;;;40.47;18.65;;;;;;;8.87;100.00;99494.47;5031148;28;20044;-65
2023/12/06 10:22:56;;;;;;;36.42;17.77;;;;;;;8.97;100.00;99495.16;5033072;28;20048;-63
2023/12/06 10:25:22;;;;;;;50.28;19.63;;;;;;;8.99;100.00;99501.13;5033110;28;20045;-65
2023/12/06 10:27:48;;;;;;;44.60;19.88;;;;;;;8.97;100.00;99500.44;5033434;28;20037;-65
2023/12/06 10:30:22;;;;;;;47.80;22.80;;;;;;;9.01;100.00;99493.88;5032902;28;20224;-63
2023/12/06 10:32:49;;;;;;;53.90;19.17;;;;;;;9.04;100.00;99495.38;5032707;28;20041;-65
2023/12/06 10:35:17;;;;;;;38.53;19.73;;;;;;;9.07;100.00;99493.22;5026283;28;20087;-65
2023/12/06 10:37:42;;;;;;;43.78;19.73;;;;;;;9.06;100.00;99490.75;5036112;28;20068;-63
2023/12/06 10:40:10;;;;;;;39.17;17.38;;;;;;;9.08;100.00;99494.88;5036350;28;20030;-63
2023/12/06 10:42:37;;;;;;;44.80;19.75;;;;;;;9.11;100.00;99488.47;5035888;28;20033;-65
2023/12/06 10:45:03;;;;;;;43.67;19.30;;;;;;;8.93;100.00;99491.19;5036394;28;20041;-65
2023/12/06 10:47:33;;;;;;;47.90;19.67;;;;;;;8.94;100.00;99485.75;5035671;28;20409;-63
2023/12/06 10:50:01;;;;;;;39.22;17.85;;;;;;;8.97;100.00;99479.31;5027353;28;20041;-63
2023/12/06 10:52:29;;;;;;;35.72;14.63;;;;;;;8.93;100.00;99476.16;5036661;28;20171;-65
2023/12/06 10:54:55;;;;;;;41.40;18.42;;;;;;;8.90;100.00;99478.31;5036091;28;20072;-65
2023/12/06 10:57:21;;;;;;;42.03;19.00;;;;;;;8.77;100.00;99483.19;5032575;28;20080;-63
2023/12/06 10:59:47;;;;;;;45.65;19.02;;;;;;;8.88;100.00;99475.00;5028458;28;20041;-63
2023/12/06 11:02:12;;;;;;;46.08;19.20;;;;;;;8.89;100.00;99472.19;5036075;28;20096;-65
2023/12/06 11:04:52;;;;;;;42.95;18.33;;;;;;;8.92;100.00;99468.41;5036215;28;20419;-63
2023/12/06 11:07:23;;;;;;;58.28;20.98;;;;;;;8.90;100.00;99479.13;5035537;28;20045;-66
2023/12/06 11:10:09;;;;;;;49.50;20.15;;;;;;;8.92;100.00;99471.88;5035806;28;20112;-65
2023/12/06 11:12:46;;;;;;;48.33;18.77;;;;;;;8.92;100.00;99476.34;5035341;28;20351;-66